createdAt,value
2018-01-27T00:01:59.378Z,9.33
2018-01-27T00:04:27.258Z,8.47
2018-01-27T00:06:55.116Z,8.10
2018-01-27T00:09:23.011Z,8.43
2018-01-27T00:11:50.921Z,11.33
2018-01-27T00:14:18.816Z,7.50
2018-01-27T00:16:46.642Z,9.77
2018-01-27T00:19:14.738Z,8.30
2018-01-27T00:21:42.575Z,7.10
2018-01-27T00:24:10.430Z,8.90
2018-01-27T00:26:38.324Z,8.67
2018-01-27T00:29:06.177Z,8.40
2018-01-27T00:31:34.015Z,7.87
2018-01-27T00:34:01.919Z,6.70
2018-01-27T00:36:29.770Z,5.50
2018-01-27T00:38:57.867Z,8.10
2018-01-27T00:41:26.762Z,7.07
2018-01-27T00:43:54.598Z,8.13
2018-01-27T00:46:22.442Z,5.60
2018-01-27T00:48:50.337Z,6.40
2018-01-27T00:51:18.171Z,7.50
2018-01-27T00:53:46.903Z,5.60
2018-01-27T00:56:14.783Z,7.27
2018-01-27T00:58:42.620Z,5.40
2018-01-27T01:01:10.531Z,5.97
2018-01-27T01:03:39.100Z,9.00
2018-01-27T01:06:06.978Z,6.07
2018-01-27T01:08:34.831Z,5.83
2018-01-27T01:11:02.739Z,6.07
2018-01-27T01:13:30.584Z,8.37
2018-01-27T01:15:58.422Z,6.27
2018-01-27T01:18:26.322Z,6.47
2018-01-27T01:20:54.213Z,6.20
2018-01-27T01:23:22.679Z,6.43
2018-01-27T01:25:50.565Z,8.23
2018-01-27T01:28:19.372Z,9.43
2018-01-27T01:30:48.188Z,7.13
2018-01-27T01:33:16.086Z,7.67
2018-01-27T01:35:43.938Z,8.97
2018-01-27T01:38:11.818Z,6.63
2018-01-27T01:40:40.288Z,8.30
2018-01-27T01:43:13.636Z,7.73
2018-01-27T01:45:41.539Z,7.33
2018-01-27T01:48:09.413Z,5.40
2018-01-27T01:50:37.293Z,7.33
2018-01-27T01:53:05.201Z,8.17
2018-01-27T01:55:33.043Z,6.83
2018-01-27T01:58:01.896Z,6.80
2018-01-27T02:00:29.786Z,7.97
2018-01-27T02:02:57.619Z,8.73
2018-01-27T02:05:25.481Z,6.20
2018-01-27T02:07:53.370Z,7.50
2018-01-27T02:10:21.232Z,6.63
2018-01-27T02:12:49.082Z,7.23
2018-01-27T02:15:17.216Z,6.30
2018-01-27T02:17:45.054Z,6.47
2018-01-27T02:20:12.974Z,5.43
2018-01-27T02:22:40.938Z,6.27
2018-01-27T02:25:08.787Z,5.47
2018-01-27T02:27:36.642Z,5.37
2018-01-27T02:30:04.600Z,6.00
2018-01-27T02:32:32.479Z,7.37
2018-01-27T02:35:00.354Z,6.30
2018-01-27T02:37:29.254Z,5.83
2018-01-27T02:39:57.123Z,6.20
2018-01-27T02:42:25.474Z,6.03
2018-01-27T02:44:53.385Z,5.00
2018-01-27T02:47:21.253Z,6.70
2018-01-27T02:49:49.100Z,6.47
2018-01-27T02:52:17.240Z,7.77
2018-01-27T02:54:45.096Z,7.37
2018-01-27T02:57:12.937Z,5.70
2018-01-27T02:59:40.831Z,5.47
2018-01-27T03:02:08.686Z,6.23
2018-01-27T03:04:37.386Z,5.13
2018-01-27T03:07:05.334Z,5.50
2018-01-27T03:09:33.206Z,5.47
2018-01-27T03:12:01.080Z,6.20
2018-01-27T03:14:28.970Z,5.93
2018-01-27T03:16:56.829Z,5.70
2018-01-27T03:19:24.666Z,5.63
2018-01-27T03:21:52.585Z,7.57
2018-01-27T03:24:20.437Z,6.63
2018-01-27T03:26:48.276Z,7.00
2018-01-27T03:29:16.166Z,7.93
2018-01-27T03:31:44.347Z,6.70
2018-01-27T03:34:12.190Z,7.77
2018-01-27T03:36:40.092Z,6.67
2018-01-27T03:39:07.938Z,6.83
2018-01-27T03:41:35.796Z,7.03
2018-01-27T03:44:04.086Z,9.13
2018-01-27T03:46:31.936Z,6.00
2018-01-27T03:48:59.783Z,7.77
2018-01-27T03:51:27.686Z,8.50
2018-01-27T03:53:55.538Z,9.67
2018-01-27T03:56:23.470Z,7.80
2018-01-27T03:58:51.379Z,8.67
2018-01-27T04:01:19.245Z,10.03
2018-01-27T04:03:47.110Z,10.07
2018-01-27T04:06:15.018Z,8.63
2018-01-27T04:08:42.866Z,7.43
2018-01-27T04:11:11.682Z,8.93
2018-01-27T04:13:39.582Z,7.50
2018-01-27T04:16:07.427Z,7.90
2018-01-27T04:18:35.380Z,8.17
2018-01-27T04:21:03.313Z,9.97
2018-01-27T04:23:31.197Z,8.10
2018-01-27T04:25:59.043Z,8.10
2018-01-27T04:28:26.949Z,9.07
2018-01-27T04:30:54.824Z,9.73
2018-01-27T04:33:22.689Z,11.00
2018-01-27T04:35:50.811Z,9.93
2018-01-27T04:38:18.696Z,8.77
2018-01-27T04:40:47.469Z,8.63
2018-01-27T04:43:15.452Z,11.40
2018-01-27T04:45:43.418Z,10.17
2018-01-27T04:48:11.307Z,11.37
2018-01-27T04:50:39.196Z,9.23
2018-01-27T04:53:07.043Z,10.00
2018-01-27T04:55:34.902Z,10.63
2018-01-27T04:58:02.810Z,12.07
2018-01-27T05:00:30.686Z,13.20
2018-01-27T05:02:58.897Z,12.37
2018-01-27T05:05:26.782Z,12.27
2018-01-27T05:07:55.348Z,12.47
2018-01-27T05:10:23.219Z,12.33
2018-01-27T05:12:51.437Z,12.57
2018-01-27T05:15:19.282Z,11.13
2018-01-27T05:17:47.165Z,11.63
2018-01-27T05:20:15.046Z,11.13
2018-01-27T05:22:42.896Z,11.20
2018-01-27T05:25:10.737Z,15.30
2018-01-27T05:27:38.638Z,12.43
2018-01-27T05:30:06.487Z,11.37
2018-01-27T05:32:34.333Z,10.40
2018-01-27T05:35:02.220Z,10.47
2018-01-27T05:37:30.087Z,10.37
2018-01-27T05:42:30.666Z,8.60
2018-01-27T05:44:58.472Z,8.57
2018-01-27T05:47:26.354Z,8.87
2018-01-27T05:49:54.448Z,11.67
2018-01-27T05:52:22.258Z,10.50
2018-01-27T05:54:50.077Z,12.27
2018-01-27T05:57:18.045Z,14.90
2018-01-27T05:59:45.885Z,15.57
2018-01-27T06:02:13.698Z,12.37
2018-01-27T06:04:41.577Z,14.30
2018-01-27T06:07:09.387Z,12.80
2018-01-27T06:09:37.199Z,10.70
2018-01-27T06:12:05.138Z,12.27
2018-01-27T06:14:32.987Z,12.30
2018-01-27T06:17:00.810Z,13.77
2018-01-27T06:19:28.727Z,15.27
2018-01-27T06:21:56.606Z,16.03
2018-01-27T06:24:24.470Z,18.57
2018-01-27T06:26:53.208Z,17.97
2018-01-27T06:29:21.019Z,17.07
2018-01-27T06:31:48.862Z,16.53
2018-01-27T06:40:24.618Z,25.67
2018-01-27T06:42:52.786Z,28.63
2018-01-27T06:45:20.680Z,25.13
2018-01-27T06:47:48.943Z,24.57
2018-01-27T06:50:16.757Z,26.90
2018-01-27T06:52:44.617Z,29.03
2018-01-27T06:55:12.430Z,30.33
2018-01-27T06:57:40.307Z,32.17
2018-01-27T07:00:08.185Z,32.97
2018-01-27T07:02:35.994Z,28.63
2018-01-27T07:05:03.843Z,23.20
2018-01-27T07:07:31.713Z,24.80
2018-01-27T07:09:59.540Z,27.27
2018-01-27T07:12:27.387Z,23.13
2018-01-27T07:14:55.251Z,24.80
2018-01-27T07:17:23.068Z,24.80
2018-01-27T07:19:50.936Z,27.10
2018-01-27T07:22:18.778Z,24.33
2018-01-27T07:24:46.634Z,22.90
2018-01-27T07:27:14.627Z,24.00
2018-01-27T07:29:42.755Z,21.10
2018-01-27T07:32:10.567Z,23.33
2018-01-27T07:34:39.132Z,25.97
2018-01-27T07:37:08.217Z,23.37
2018-01-27T07:39:36.130Z,25.63
2018-01-27T07:42:03.967Z,24.00
2018-01-27T07:44:32.087Z,23.50
2018-01-27T07:47:00.247Z,22.83
2018-01-27T07:49:28.233Z,22.93
2018-01-27T07:51:56.110Z,24.33
2018-01-27T07:54:23.966Z,27.50
2018-01-27T07:56:51.794Z,22.10
2018-01-27T07:59:19.654Z,22.80
2018-01-27T08:01:47.483Z,27.33
2018-01-27T08:04:15.279Z,28.77
2018-01-27T08:06:43.137Z,26.90
2018-01-27T08:09:10.976Z,29.27
2018-01-27T08:11:38.813Z,27.57
2018-01-27T08:14:06.714Z,33.27
2018-01-27T08:16:37.664Z,31.57
2018-01-27T08:19:05.575Z,23.03
2018-01-27T08:21:33.791Z,16.73
2018-01-27T08:24:01.723Z,18.57
2018-01-27T08:26:29.564Z,19.83
2018-01-27T08:28:57.478Z,21.10
2018-01-27T08:31:25.306Z,22.53
2018-01-27T08:33:53.146Z,16.33
2018-01-27T08:36:21.054Z,20.13
2018-01-27T08:38:48.873Z,23.23
2018-01-27T08:41:17.662Z,22.83
2018-01-27T08:43:45.549Z,20.70
2018-01-27T08:46:13.386Z,21.60
2018-01-27T08:48:41.220Z,21.90
2018-01-27T08:51:09.243Z,22.00
2018-01-27T08:53:37.085Z,19.97
2018-01-27T08:56:04.947Z,24.20
2018-01-27T08:58:32.843Z,19.97
2018-01-27T09:01:00.710Z,18.97
2018-01-27T09:03:28.527Z,16.90
2018-01-27T09:05:56.446Z,19.27
2018-01-27T09:08:24.260Z,17.33
2018-01-27T09:10:52.074Z,22.13
2018-01-27T09:13:19.981Z,18.53
2018-01-27T09:15:47.809Z,17.43
2018-01-27T09:18:15.641Z,22.23
2018-01-27T09:20:43.527Z,15.67
2018-01-27T09:23:11.342Z,11.50
2018-01-27T09:25:39.178Z,14.20
2018-01-27T09:28:07.076Z,19.40
2018-01-27T09:30:35.530Z,23.60
2018-01-27T09:33:03.350Z,14.00
2018-01-27T09:35:31.246Z,10.53
2018-01-27T09:37:59.058Z,9.23
2018-01-27T09:40:26.881Z,9.60
2018-01-27T09:42:54.746Z,9.53
2018-01-27T09:45:22.588Z,14.07
2018-01-27T09:47:50.378Z,9.70
2018-01-27T09:50:18.273Z,9.27
2018-01-27T09:52:46.324Z,8.63
2018-01-27T09:55:14.237Z,9.70
2018-01-27T09:57:42.127Z,12.43
2018-01-27T10:00:09.986Z,11.17
2018-01-27T10:02:37.794Z,11.63
2018-01-27T10:05:05.886Z,13.70
2018-01-27T10:07:33.734Z,11.87
2018-01-27T10:10:01.578Z,9.70
2018-01-27T10:12:29.477Z,9.37
2018-01-27T10:14:57.282Z,15.17
2018-01-27T10:17:25.146Z,13.23
2018-01-27T10:19:53.027Z,10.93
2018-01-27T10:22:20.857Z,12.83
2018-01-27T10:24:48.716Z,18.83
2018-01-27T10:27:17.233Z,14.30
2018-01-27T10:29:45.057Z,12.03
2018-01-27T10:32:12.902Z,16.00
2018-01-27T10:34:40.818Z,11.37
2018-01-27T10:37:08.648Z,11.03
2018-01-27T10:39:36.470Z,12.60
2018-01-27T10:42:04.450Z,13.40
2018-01-27T10:44:32.313Z,11.97
2018-01-27T10:47:00.173Z,10.67
2018-01-27T10:49:28.086Z,11.67
2018-01-27T10:51:56.010Z,12.17
2018-01-27T10:54:23.914Z,11.40
2018-01-27T10:56:51.790Z,11.53
2018-01-27T10:59:19.595Z,16.03
2018-01-27T11:01:47.415Z,12.73
2018-01-27T11:04:15.262Z,12.10
2018-01-27T11:06:43.080Z,11.93
2018-01-27T11:09:10.906Z,13.27
2018-01-27T11:11:38.786Z,12.33
2018-01-27T11:14:06.611Z,10.73
2018-01-27T11:16:40.357Z,9.67
2018-01-27T11:19:08.182Z,10.10
2018-01-27T11:21:35.994Z,13.30
2018-01-27T11:24:03.935Z,11.47
2018-01-27T11:26:31.842Z,11.37
2018-01-27T11:28:59.670Z,12.37
2018-01-27T11:31:27.545Z,10.30
2018-01-27T11:33:55.350Z,13.47
2018-01-27T11:36:23.174Z,14.47
2018-01-27T11:38:51.049Z,13.60
2018-01-27T11:41:18.894Z,13.33
2018-01-27T11:43:46.745Z,14.93
2018-01-27T11:46:14.945Z,10.57
2018-01-27T11:48:42.851Z,13.93
2018-01-27T11:51:10.734Z,14.37
2018-01-27T11:53:38.670Z,13.70
2018-01-27T11:56:06.825Z,13.87
2018-01-27T11:58:34.725Z,12.77
2018-01-27T12:01:02.632Z,11.07
2018-01-27T12:03:30.538Z,10.07
2018-01-27T12:05:58.391Z,11.40
2018-01-27T12:08:26.307Z,12.90
2018-01-27T12:10:54.191Z,11.53
2018-01-27T12:13:22.030Z,10.37
2018-01-27T12:15:49.962Z,10.03
2018-01-27T12:18:17.818Z,11.40
2018-01-27T12:20:45.658Z,13.57
2018-01-27T12:23:13.822Z,11.23
2018-01-27T12:25:41.675Z,9.50
2018-01-27T12:28:09.522Z,10.60
2018-01-27T12:30:37.427Z,12.40
2018-01-27T12:33:05.359Z,14.07
2018-01-27T12:35:33.213Z,11.60
2018-01-27T12:38:01.106Z,9.87
2018-01-27T12:40:29.029Z,10.83
2018-01-27T12:42:56.894Z,11.77
2018-01-27T12:45:24.811Z,10.23
2018-01-27T12:47:52.687Z,10.67
2018-01-27T12:50:20.619Z,13.27
2018-01-27T12:52:48.587Z,10.80
2018-01-27T12:55:16.423Z,9.83
2018-01-27T12:57:45.359Z,13.23
2018-01-27T13:00:13.278Z,11.50
2018-01-27T13:02:41.131Z,12.60
2018-01-27T13:05:08.988Z,11.00
2018-01-27T13:07:36.895Z,9.30
2018-01-27T13:10:04.924Z,16.07
2018-01-27T13:12:32.763Z,16.50
2018-01-27T13:15:01.094Z,13.43
2018-01-27T13:17:28.931Z,14.30
2018-01-27T13:19:56.780Z,11.67
2018-01-27T13:22:24.727Z,10.93
2018-01-27T13:24:52.581Z,10.57
2018-01-27T13:27:20.449Z,13.47
2018-01-27T13:29:48.347Z,11.43
2018-01-27T13:32:16.232Z,10.27
2018-01-27T13:34:44.160Z,12.67
2018-01-27T13:37:12.098Z,11.40
2018-01-27T13:39:39.958Z,10.77
2018-01-27T13:42:07.823Z,9.60
2018-01-27T13:44:35.743Z,10.63
2018-01-27T13:47:03.590Z,11.53
2018-01-27T13:49:31.434Z,10.33
2018-01-27T13:51:59.550Z,10.30
2018-01-27T13:54:27.414Z,10.10
2018-01-27T13:56:55.276Z,11.00
2018-01-27T13:59:23.362Z,10.63
2018-01-27T14:01:51.214Z,10.10
2018-01-27T14:04:19.118Z,9.47
2018-01-27T14:06:47.024Z,9.23
2018-01-27T14:09:14.879Z,11.73
2018-01-27T14:11:42.754Z,19.63
2018-01-27T14:14:10.677Z,16.33
2018-01-27T14:16:38.542Z,16.07
2018-01-27T14:19:06.416Z,14.27
2018-01-27T14:21:34.651Z,19.53
2018-01-27T14:24:02.514Z,21.73
2018-01-27T14:26:30.403Z,14.10
2018-01-27T14:28:58.316Z,13.83
2018-01-27T14:31:26.165Z,14.63
2018-01-27T14:33:54.027Z,14.27
2018-01-27T14:36:33.838Z,17.57
2018-01-27T14:39:01.714Z,13.47
2018-01-27T14:41:29.923Z,17.60
2018-01-27T14:43:57.843Z,14.37
2018-01-27T14:46:25.716Z,15.73
2018-01-27T14:48:53.595Z,14.83
2018-01-27T14:51:21.588Z,16.00
2018-01-27T14:53:49.466Z,18.17
2018-01-27T14:56:18.133Z,16.60
2018-01-27T14:58:46.267Z,14.47
2018-01-27T15:01:14.172Z,19.23
2018-01-27T15:03:42.015Z,16.07
2018-01-27T15:06:09.907Z,16.63
2018-01-27T15:08:37.762Z,15.63
2018-01-27T15:11:05.641Z,19.63
2018-01-27T15:13:33.578Z,23.17
2018-01-27T15:16:01.451Z,19.43
2018-01-27T15:18:29.346Z,18.53
2018-01-27T15:20:57.296Z,16.17
2018-01-27T15:23:26.062Z,14.43
2018-01-27T15:25:53.906Z,14.87
2018-01-27T15:28:21.807Z,16.77
2018-01-27T15:30:49.703Z,15.27
2018-01-27T15:33:17.596Z,15.20
2018-01-27T15:35:45.502Z,16.50
2018-01-27T15:38:13.435Z,15.63
2018-01-27T15:40:41.266Z,16.47
2018-01-27T15:43:09.182Z,26.03
2018-01-27T15:45:37.119Z,26.13
2018-01-27T15:48:04.994Z,29.07
2018-01-27T15:50:32.990Z,24.80
2018-01-27T15:53:00.845Z,25.87
2018-01-27T15:55:28.909Z,26.63
2018-01-27T15:57:56.836Z,37.23
2018-01-27T16:00:24.734Z,28.87
2018-01-27T16:02:52.720Z,28.37
2018-01-27T16:05:21.554Z,29.33
2018-01-27T16:07:49.421Z,30.57
2018-01-27T16:10:17.291Z,31.80
2018-01-27T16:12:45.223Z,36.70
2018-01-27T16:15:13.087Z,47.37
2018-01-27T16:17:40.934Z,47.60
2018-01-27T16:20:09.162Z,42.80
2018-01-27T16:22:37.037Z,58.40
2018-01-27T16:25:04.940Z,65.57
2018-01-27T16:27:32.839Z,72.73
2018-01-27T16:30:00.773Z,76.57
2018-01-27T16:32:28.647Z,75.83
2018-01-27T16:34:56.548Z,77.70
2018-01-27T16:37:24.430Z,72.50
2018-01-27T16:39:52.393Z,70.20
2018-01-27T16:42:20.315Z,66.77
2018-01-27T16:44:48.275Z,67.30
2018-01-27T16:47:16.200Z,68.57
2018-01-27T16:49:44.171Z,70.03
2018-01-27T16:52:12.034Z,66.43
2018-01-27T16:54:39.914Z,66.73
2018-01-27T16:57:07.838Z,67.47
2018-01-27T16:59:35.681Z,76.73
2018-01-27T17:02:03.541Z,61.47
2018-01-27T17:04:32.058Z,68.43
2018-01-27T17:06:59.907Z,63.60
2018-01-27T17:09:27.758Z,67.43
2018-01-27T17:11:55.716Z,68.07
2018-01-27T17:14:23.559Z,70.70
2018-01-27T17:16:51.407Z,64.43
2018-01-27T17:19:19.315Z,70.90
2018-01-27T17:21:47.167Z,67.27
2018-01-27T17:24:15.005Z,65.03
2018-01-27T17:26:42.903Z,68.33
2018-01-27T17:29:10.746Z,57.87
2018-01-27T17:31:38.678Z,56.07
2018-01-27T17:34:06.834Z,52.00
2018-01-27T17:36:34.678Z,47.50
2018-01-27T17:39:02.531Z,43.50
2018-01-27T17:41:30.693Z,43.23
2018-01-27T17:43:58.564Z,42.13
2018-01-27T17:46:26.428Z,54.97
2018-01-27T17:48:54.323Z,42.83
2018-01-27T17:51:22.199Z,46.03
2018-01-27T17:53:51.046Z,43.47
2018-01-27T17:56:19.007Z,45.17
2018-01-27T17:58:46.856Z,45.93
2018-01-27T18:01:14.771Z,38.70
2018-01-27T18:03:42.659Z,39.13
2018-01-27T18:06:11.258Z,41.50
2018-01-27T18:08:39.115Z,34.50
2018-01-27T18:11:07.118Z,38.17
2018-01-27T18:13:34.946Z,32.90
2018-01-27T18:16:02.802Z,30.37
2018-01-27T18:18:30.758Z,31.73
2018-01-27T18:20:58.618Z,32.13
2018-01-27T18:23:26.456Z,31.97
2018-01-27T18:25:54.470Z,33.73
2018-01-27T18:28:22.339Z,33.57
2018-01-27T18:30:50.172Z,28.77
2018-01-27T18:33:18.100Z,33.97
2018-01-27T18:35:45.930Z,27.33
2018-01-27T18:38:13.766Z,27.20
2018-01-27T18:40:41.987Z,27.50
2018-01-27T18:43:09.882Z,25.83
2018-01-27T18:45:37.730Z,26.00
2018-01-27T18:48:05.662Z,25.27
2018-01-27T18:50:33.503Z,23.20
2018-01-27T18:53:01.347Z,27.27
2018-01-27T18:55:29.305Z,26.10
2018-01-27T18:57:57.204Z,25.90
2018-01-27T19:00:25.082Z,22.30
2018-01-27T19:02:52.967Z,21.97
2018-01-27T19:05:20.828Z,22.77
2018-01-27T19:07:48.861Z,24.47
2018-01-27T19:10:16.791Z,21.87
2018-01-27T19:12:44.655Z,20.17
2018-01-27T19:15:12.514Z,22.40
2018-01-27T19:17:41.196Z,23.93
2018-01-27T19:20:09.059Z,22.80
2018-01-27T19:22:36.907Z,19.30
2018-01-27T19:25:04.798Z,24.83
2018-01-27T19:27:32.648Z,20.30
2018-01-27T19:30:00.543Z,18.53
2018-01-27T19:32:28.436Z,24.40
2018-01-27T19:34:56.295Z,22.97
2018-01-27T19:37:24.164Z,21.67
2018-01-27T19:39:52.088Z,20.60
2018-01-27T19:42:19.983Z,18.07
2018-01-27T19:44:47.831Z,20.07
2018-01-27T19:47:16.035Z,23.50
2018-01-27T19:49:43.949Z,21.60
2018-01-27T19:52:11.809Z,19.80
2018-01-27T19:54:40.008Z,21.93
2018-01-27T19:57:07.871Z,19.93
2018-01-27T19:59:35.743Z,50.10
2018-01-27T20:02:03.666Z,25.80
2018-01-27T20:04:31.551Z,25.00
2018-01-27T20:06:59.420Z,20.40
2018-01-27T20:09:27.406Z,20.13
2018-01-27T20:11:55.250Z,19.67
2018-01-27T20:14:23.127Z,20.57
2018-01-27T20:16:51.055Z,19.77
2018-01-27T20:19:18.927Z,19.67
2018-01-27T20:21:46.798Z,21.13
2018-01-27T20:24:14.706Z,19.50
2018-01-27T20:26:42.563Z,20.30
2018-01-27T20:29:10.439Z,17.53
2018-01-27T20:31:38.626Z,21.73
2018-01-27T20:34:06.502Z,20.27
2018-01-27T20:36:34.416Z,21.10
2018-01-27T20:39:02.330Z,23.27
2018-01-27T20:41:30.256Z,26.40
2018-01-27T20:43:58.090Z,24.17
2018-01-27T20:46:26.006Z,28.10
2018-01-27T20:48:53.923Z,27.10
2018-01-27T20:51:21.818Z,27.10
2018-01-27T20:53:49.814Z,24.77
2018-01-27T20:56:17.723Z,22.40
2018-01-27T20:58:46.272Z,21.90
2018-01-27T21:01:14.223Z,22.57
2018-01-27T21:03:42.102Z,24.57
2018-01-27T21:06:09.982Z,26.07
2018-01-27T21:08:37.890Z,26.63
2018-01-27T21:11:07.249Z,28.17
2018-01-27T21:13:35.097Z,28.40
2018-01-27T21:16:03.079Z,28.63
2018-01-27T21:18:30.947Z,25.73
2018-01-27T21:20:58.812Z,29.37
2018-01-27T21:23:26.764Z,27.63
2018-01-27T21:25:54.686Z,28.87
2018-01-27T21:28:22.748Z,28.03
2018-01-27T21:30:50.691Z,29.30
2018-01-27T21:33:18.652Z,24.90
2018-01-27T21:35:46.503Z,35.57
2018-01-27T21:38:14.647Z,30.27
2018-01-27T21:40:42.538Z,29.43
2018-01-27T21:43:10.391Z,33.40
2018-01-27T21:45:38.703Z,27.83
2018-01-27T21:48:06.567Z,28.30
2018-01-27T21:50:34.417Z,31.57
2018-01-27T21:53:02.667Z,32.50
2018-01-27T21:55:30.531Z,38.87
2018-01-27T21:57:58.406Z,31.73
2018-01-27T22:00:26.326Z,36.80
2018-01-27T22:02:54.178Z,31.17
2018-01-27T22:05:22.022Z,30.97
2018-01-27T22:07:49.924Z,33.53
2018-01-27T22:10:17.778Z,35.83
2018-01-27T22:12:45.744Z,32.50
2018-01-27T22:15:13.678Z,31.27
2018-01-27T22:17:41.527Z,30.37
2018-01-27T22:20:09.377Z,33.73
2018-01-27T22:22:37.326Z,32.77
2018-01-27T22:25:05.190Z,34.50
2018-01-27T22:27:33.025Z,35.10
2018-01-27T22:30:01.144Z,33.27
2018-01-27T22:32:29.018Z,27.33
2018-01-27T22:34:56.892Z,30.73
2018-01-27T22:37:24.774Z,25.57
2018-01-27T22:39:52.623Z,30.00
2018-01-27T22:42:20.486Z,25.23
2018-01-27T22:44:48.414Z,27.20
2018-01-27T22:47:16.285Z,27.50
2018-01-27T22:49:44.169Z,27.00
2018-01-27T22:52:12.095Z,24.87
2018-01-27T22:54:39.995Z,24.83
2018-01-27T22:57:07.870Z,24.57
2018-01-27T22:59:35.806Z,22.53
2018-01-27T23:02:03.665Z,24.43
2018-01-27T23:04:31.519Z,26.47
2018-01-27T23:06:59.626Z,21.50
2018-01-27T23:09:27.484Z,22.70
2018-01-27T23:11:55.335Z,22.80
2018-01-27T23:14:24.315Z,24.93
2018-01-27T23:16:52.174Z,29.20
2018-01-27T23:19:20.049Z,21.23
2018-01-27T23:21:48.466Z,23.47
2018-01-27T23:24:16.363Z,22.53
2018-01-27T23:26:44.231Z,20.40
2018-01-27T23:29:12.148Z,22.83
2018-01-27T23:31:40.035Z,24.37
2018-01-27T23:34:07.914Z,23.60
2018-01-27T23:36:35.816Z,22.70
2018-01-27T23:39:03.763Z,22.63
2018-01-27T23:41:31.664Z,26.80
2018-01-27T23:43:59.823Z,27.20
2018-01-27T23:46:27.693Z,23.70
2018-01-27T23:48:55.544Z,28.93
2018-01-27T23:51:24.430Z,29.00
2018-01-27T23:53:52.283Z,31.47
2018-01-27T23:56:20.118Z,31.03
2018-01-27T23:58:48.087Z,34.33
